Alloy, West Virginia
Current Conditions -  °F | °C
As of 6:54 AM on Saturday 01 Nov 2014 (Local Time) from KCRW Reporting Station
Drizzle Drizzle  
Wind Chill: 39°   Ceiling: 900
Heat Index: 42°   Visibility: 10mi
Dew Point: 39°   Wind: 5mph
Humidity: 89%   Direction: 340°NNW
Pressure: 29.91"   Gusts: NA
Location:  38.14°N, 81.27°W
Report Text: KCRW 011054Z 34004KT 10SM -DZ BKN009 OVC018 06/04 A2991 RMK AO2 RAE48DZB48 SLP133 VLY FG P0000 T00560039
Loading
Personal Weather Stations






























Interactive Weather Map
Tropical Storm Tracking
New forecast layout! Learn more

10-Day Weather Forecast

Advertisements
Track Severe Weather on mobile